sensor_id;sensor_type;location;lat;lon;timestamp;P1;durP1;ratioP1;P2;durP2;ratioP2
55589;SDS011;41452;42.780;23.116;2023-07-31T00:01:26;5.97;;;2.90;;
55589;SDS011;41452;42.780;23.116;2023-07-31T00:03:52;6.47;;;3.25;;
55589;SDS011;41452;42.780;23.116;2023-07-31T00:06:17;5.05;;;3.22;;
55589;SDS011;41452;42.780;23.116;2023-07-31T00:08:42;4.55;;;3.22;;
55589;SDS011;41452;42.780;23.116;2023-07-31T00:11:08;8.80;;;3.30;;
55589;SDS011;41452;42.780;23.116;2023-07-31T00:13:33;5.97;;;3.70;;
55589;SDS011;41452;42.780;23.116;2023-07-31T00:15:59;5.03;;;3.65;;
55589;SDS011;41452;42.780;23.116;2023-07-31T00:18:24;5.82;;;4.05;;
55589;SDS011;41452;42.780;23.116;2023-07-31T00:20:50;5.40;;;3.80;;
55589;SDS011;41452;42.780;23.116;2023-07-31T00:23:15;6.50;;;4.68;;
55589;SDS011;41452;42.780;23.116;2023-07-31T00:25:41;6.72;;;4.50;;
55589;SDS011;41452;42.780;23.116;2023-07-31T00:28:06;6.05;;;4.28;;
55589;SDS011;41452;42.780;23.116;2023-07-31T00:30:32;6.53;;;4.60;;
55589;SDS011;41452;42.780;23.116;2023-07-31T00:32:57;6.47;;;5.00;;
55589;SDS011;41452;42.780;23.116;2023-07-31T00:35:22;7.70;;;5.80;;
55589;SDS011;41452;42.780;23.116;2023-07-31T00:37:48;8.63;;;6.60;;
55589;SDS011;41452;42.780;23.116;2023-07-31T00:40:13;9.50;;;6.90;;
55589;SDS011;41452;42.780;23.116;2023-07-31T00:42:39;11.73;;;6.55;;
55589;SDS011;41452;42.780;23.116;2023-07-31T00:45:04;10.95;;;6.75;;
55589;SDS011;41452;42.780;23.116;2023-07-31T00:47:30;10.18;;;7.40;;
55589;SDS011;41452;42.780;23.116;2023-07-31T00:49:56;11.95;;;8.63;;
55589;SDS011;41452;42.780;23.116;2023-07-31T00:52:21;12.50;;;8.30;;
55589;SDS011;41452;42.780;23.116;2023-07-31T00:54:47;9.70;;;7.30;;
55589;SDS011;41452;42.780;23.116;2023-07-31T00:57:14;11.20;;;8.57;;
55589;SDS011;41452;42.780;23.116;2023-07-31T00:59:39;12.88;;;9.95;;
55589;SDS011;41452;42.780;23.116;2023-07-31T01:02:04;13.43;;;9.38;;
55589;SDS011;41452;42.780;23.116;2023-07-31T01:04:30;14.63;;;9.52;;
55589;SDS011;41452;42.780;23.116;2023-07-31T01:07:01;12.73;;;8.80;;
55589;SDS011;41452;42.780;23.116;2023-07-31T01:12:29;12.07;;;9.18;;
55589;SDS011;41452;42.780;23.116;2023-07-31T01:15:06;13.15;;;9.45;;
55589;SDS011;41452;42.780;23.116;2023-07-31T01:17:36;11.18;;;8.65;;
55589;SDS011;41452;42.780;23.116;2023-07-31T01:20:03;14.02;;;9.55;;
55589;SDS011;41452;42.780;23.116;2023-07-31T01:28:04;15.80;;;9.77;;
55589;SDS011;41452;42.780;23.116;2023-07-31T01:30:33;36.33;;;11.32;;
55589;SDS011;41452;42.780;23.116;2023-07-31T01:33:02;13.40;;;10.52;;
55589;SDS011;41452;42.780;23.116;2023-07-31T01:35:32;15.48;;;12.50;;
55589;SDS011;41452;42.780;23.116;2023-07-31T01:38:01;16.98;;;13.02;;
55589;SDS011;41452;42.780;23.116;2023-07-31T01:40:27;16.38;;;12.68;;
55589;SDS011;41452;42.780;23.116;2023-07-31T01:42:52;19.10;;;14.07;;
55589;SDS011;41452;42.780;23.116;2023-07-31T01:45:17;18.38;;;13.95;;
55589;SDS011;41452;42.780;23.116;2023-07-31T01:47:43;20.88;;;13.93;;
55589;SDS011;41452;42.780;23.116;2023-07-31T01:50:08;20.55;;;14.38;;
55589;SDS011;41452;42.780;23.116;2023-07-31T01:52:34;20.05;;;13.43;;
55589;SDS011;41452;42.780;23.116;2023-07-31T01:54:59;21.45;;;14.05;;
55589;SDS011;41452;42.780;23.116;2023-07-31T01:57:25;19.98;;;13.70;;
55589;SDS011;41452;42.780;23.116;2023-07-31T01:59:50;20.48;;;14.57;;
55589;SDS011;41452;42.780;23.116;2023-07-31T02:02:18;21.45;;;15.70;;
55589;SDS011;41452;42.780;23.116;2023-07-31T02:04:44;19.23;;;15.43;;
55589;SDS011;41452;42.780;23.116;2023-07-31T02:07:10;19.75;;;15.30;;
55589;SDS011;41452;42.780;23.116;2023-07-31T02:09:35;21.63;;;16.05;;
55589;SDS011;41452;42.780;23.116;2023-07-31T02:12:01;22.95;;;15.57;;
55589;SDS011;41452;42.780;23.116;2023-07-31T02:14:26;24.33;;;15.82;;
55589;SDS011;41452;42.780;23.116;2023-07-31T02:16:52;18.85;;;14.82;;
55589;SDS011;41452;42.780;23.116;2023-07-31T02:19:17;20.88;;;15.55;;
55589;SDS011;41452;42.780;23.116;2023-07-31T02:21:43;21.80;;;15.15;;
55589;SDS011;41452;42.780;23.116;2023-07-31T02:24:08;23.08;;;15.45;;
55589;SDS011;41452;42.780;23.116;2023-07-31T02:26:33;18.58;;;15.07;;
55589;SDS011;41452;42.780;23.116;2023-07-31T02:28:59;20.52;;;15.55;;
55589;SDS011;41452;42.780;23.116;2023-07-31T02:31:24;20.25;;;15.52;;
55589;SDS011;41452;42.780;23.116;2023-07-31T02:33:50;23.60;;;16.85;;
55589;SDS011;41452;42.780;23.116;2023-07-31T02:36:15;23.17;;;16.92;;
55589;SDS011;41452;42.780;23.116;2023-07-31T02:38:40;22.48;;;16.40;;
55589;SDS011;41452;42.780;23.116;2023-07-31T02:41:06;21.98;;;16.17;;
55589;SDS011;41452;42.780;23.116;2023-07-31T02:43:31;21.90;;;14.68;;
55589;SDS011;41452;42.780;23.116;2023-07-31T02:45:57;21.85;;;16.17;;
55589;SDS011;41452;42.780;23.116;2023-07-31T02:48:22;26.50;;;17.05;;
55589;SDS011;41452;42.780;23.116;2023-07-31T02:50:47;21.73;;;16.48;;
55589;SDS011;41452;42.780;23.116;2023-07-31T02:53:13;23.48;;;17.40;;
55589;SDS011;41452;42.780;23.116;2023-07-31T02:55:39;20.55;;;16.38;;
55589;SDS011;41452;42.780;23.116;2023-07-31T02:58:04;27.23;;;17.08;;
55589;SDS011;41452;42.780;23.116;2023-07-31T03:00:30;22.40;;;16.67;;
55589;SDS011;41452;42.780;23.116;2023-07-31T03:02:55;23.35;;;17.42;;
55589;SDS011;41452;42.780;23.116;2023-07-31T03:05:20;23.05;;;17.30;;
55589;SDS011;41452;42.780;23.116;2023-07-31T03:07:46;21.83;;;16.05;;
55589;SDS011;41452;42.780;23.116;2023-07-31T03:10:11;22.92;;;16.35;;
55589;SDS011;41452;42.780;23.116;2023-07-31T03:12:37;23.23;;;17.85;;
55589;SDS011;41452;42.780;23.116;2023-07-31T03:15:02;25.15;;;17.70;;
55589;SDS011;41452;42.780;23.116;2023-07-31T03:17:28;26.20;;;18.27;;
55589;SDS011;41452;42.780;23.116;2023-07-31T03:19:53;26.25;;;17.15;;
55589;SDS011;41452;42.780;23.116;2023-07-31T03:22:19;25.20;;;17.85;;
55589;SDS011;41452;42.780;23.116;2023-07-31T03:24:44;23.42;;;16.58;;
55589;SDS011;41452;42.780;23.116;2023-07-31T03:27:09;24.98;;;17.27;;
55589;SDS011;41452;42.780;23.116;2023-07-31T03:29:35;22.10;;;16.88;;
55589;SDS011;41452;42.780;23.116;2023-07-31T03:32:00;23.30;;;17.55;;
55589;SDS011;41452;42.780;23.116;2023-07-31T03:34:26;26.00;;;17.50;;
55589;SDS011;41452;42.780;23.116;2023-07-31T03:36:51;26.70;;;18.42;;
55589;SDS011;41452;42.780;23.116;2023-07-31T03:39:16;25.95;;;18.25;;
55589;SDS011;41452;42.780;23.116;2023-07-31T03:41:42;25.55;;;18.02;;
55589;SDS011;41452;42.780;23.116;2023-07-31T03:44:07;25.27;;;18.15;;
55589;SDS011;41452;42.780;23.116;2023-07-31T03:46:33;27.58;;;19.70;;
55589;SDS011;41452;42.780;23.116;2023-07-31T03:48:58;25.17;;;17.25;;
55589;SDS011;41452;42.780;23.116;2023-07-31T03:51:24;32.05;;;18.60;;
55589;SDS011;41452;42.780;23.116;2023-07-31T03:53:49;26.85;;;18.02;;
55589;SDS011;41452;42.780;23.116;2023-07-31T03:56:15;30.52;;;20.00;;
55589;SDS011;41452;42.780;23.116;2023-07-31T03:58:40;26.85;;;18.35;;
55589;SDS011;41452;42.780;23.116;2023-07-31T04:01:05;25.40;;;17.88;;
55589;SDS011;41452;42.780;23.116;2023-07-31T04:03:31;25.10;;;17.30;;
55589;SDS011;41452;42.780;23.116;2023-07-31T04:05:56;25.77;;;18.60;;
55589;SDS011;41452;42.780;23.116;2023-07-31T04:08:22;30.65;;;19.02;;
55589;SDS011;41452;42.780;23.116;2023-07-31T04:10:48;28.88;;;18.13;;
55589;SDS011;41452;42.780;23.116;2023-07-31T04:13:13;28.02;;;18.92;;
55589;SDS011;41452;42.780;23.116;2023-07-31T04:15:39;24.13;;;17.52;;
55589;SDS011;41452;42.780;23.116;2023-07-31T04:18:04;29.75;;;18.38;;
55589;SDS011;41452;42.780;23.116;2023-07-31T04:20:30;24.92;;;17.85;;
55589;SDS011;41452;42.780;23.116;2023-07-31T04:22:56;24.52;;;17.70;;
55589;SDS011;41452;42.780;23.116;2023-07-31T04:25:21;27.42;;;18.67;;
55589;SDS011;41452;42.780;23.116;2023-07-31T04:27:47;28.90;;;18.05;;
55589;SDS011;41452;42.780;23.116;2023-07-31T04:30:12;28.85;;;20.33;;
55589;SDS011;41452;42.780;23.116;2023-07-31T04:32:37;27.33;;;18.50;;
55589;SDS011;41452;42.780;23.116;2023-07-31T04:35:03;24.70;;;17.58;;
55589;SDS011;41452;42.780;23.116;2023-07-31T04:37:29;24.42;;;17.55;;
55589;SDS011;41452;42.780;23.116;2023-07-31T04:39:54;23.30;;;17.77;;
55589;SDS011;41452;42.780;23.116;2023-07-31T04:42:19;25.35;;;18.50;;
55589;SDS011;41452;42.780;23.116;2023-07-31T04:44:45;24.83;;;17.50;;
55589;SDS011;41452;42.780;23.116;2023-07-31T04:47:10;26.73;;;16.90;;
55589;SDS011;41452;42.780;23.116;2023-07-31T04:49:36;21.30;;;16.25;;
55589;SDS011;41452;42.780;23.116;2023-07-31T04:52:01;22.02;;;16.00;;
55589;SDS011;41452;42.780;23.116;2023-07-31T04:54:27;22.33;;;15.82;;
55589;SDS011;41452;42.780;23.116;2023-07-31T04:56:52;26.75;;;15.70;;
55589;SDS011;41452;42.780;23.116;2023-07-31T04:59:18;22.80;;;16.65;;
55589;SDS011;41452;42.780;23.116;2023-07-31T05:01:43;20.60;;;16.48;;
55589;SDS011;41452;42.780;23.116;2023-07-31T05:04:12;18.02;;;14.23;;
55589;SDS011;41452;42.780;23.116;2023-07-31T05:06:38;19.95;;;14.48;;
55589;SDS011;41452;42.780;23.116;2023-07-31T05:09:03;22.88;;;14.02;;
55589;SDS011;41452;42.780;23.116;2023-07-31T05:11:29;19.80;;;12.95;;
55589;SDS011;41452;42.780;23.116;2023-07-31T05:13:54;15.25;;;11.63;;
55589;SDS011;41452;42.780;23.116;2023-07-31T05:16:19;14.68;;;10.77;;
55589;SDS011;41452;42.780;23.116;2023-07-31T05:18:45;16.65;;;11.30;;
55589;SDS011;41452;42.780;23.116;2023-07-31T05:21:10;13.98;;;9.85;;
55589;SDS011;41452;42.780;23.116;2023-07-31T05:23:35;14.65;;;10.88;;
55589;SDS011;41452;42.780;23.116;2023-07-31T05:26:07;14.10;;;10.77;;
55589;SDS011;41452;42.780;23.116;2023-07-31T05:28:35;15.18;;;10.07;;
55589;SDS011;41452;42.780;23.116;2023-07-31T05:31:01;12.90;;;10.20;;
55589;SDS011;41452;42.780;23.116;2023-07-31T05:33:30;15.00;;;9.20;;
55589;SDS011;41452;42.780;23.116;2023-07-31T05:35:56;12.65;;;9.77;;
55589;SDS011;41452;42.780;23.116;2023-07-31T05:38:21;13.65;;;9.02;;
55589;SDS011;41452;42.780;23.116;2023-07-31T05:40:47;12.32;;;8.98;;
55589;SDS011;41452;42.780;23.116;2023-07-31T05:43:12;11.15;;;8.07;;
55589;SDS011;41452;42.780;23.116;2023-07-31T05:45:38;10.07;;;7.65;;
55589;SDS011;41452;42.780;23.116;2023-07-31T05:48:05;9.65;;;7.43;;
55589;SDS011;41452;42.780;23.116;2023-07-31T05:50:30;12.73;;;7.35;;
55589;SDS011;41452;42.780;23.116;2023-07-31T05:52:56;9.45;;;5.93;;
55589;SDS011;41452;42.780;23.116;2023-07-31T05:55:21;8.38;;;6.38;;
55589;SDS011;41452;42.780;23.116;2023-07-31T05:57:46;8.07;;;5.50;;
55589;SDS011;41452;42.780;23.116;2023-07-31T06:00:12;7.28;;;5.13;;
55589;SDS011;41452;42.780;23.116;2023-07-31T06:02:38;7.95;;;5.63;;
55589;SDS011;41452;42.780;23.116;2023-07-31T06:05:04;8.90;;;5.55;;
55589;SDS011;41452;42.780;23.116;2023-07-31T06:07:33;9.55;;;5.75;;
55589;SDS011;41452;42.780;23.116;2023-07-31T06:09:59;7.78;;;5.00;;
55589;SDS011;41452;42.780;23.116;2023-07-31T06:12:29;7.97;;;4.15;;
55589;SDS011;41452;42.780;23.116;2023-07-31T06:14:56;10.18;;;4.93;;
55589;SDS011;41452;42.780;23.116;2023-07-31T06:17:21;7.15;;;5.15;;
55589;SDS011;41452;42.780;23.116;2023-07-31T06:19:46;9.15;;;5.57;;
55589;SDS011;41452;42.780;23.116;2023-07-31T06:22:12;9.45;;;4.30;;
55589;SDS011;41452;42.780;23.116;2023-07-31T06:24:37;12.35;;;4.13;;
55589;SDS011;41452;42.780;23.116;2023-07-31T06:27:03;15.57;;;4.80;;
55589;SDS011;41452;42.780;23.116;2023-07-31T06:29:29;8.00;;;3.88;;
55589;SDS011;41452;42.780;23.116;2023-07-31T06:31:55;9.25;;;4.97;;
55589;SDS011;41452;42.780;23.116;2023-07-31T06:34:20;9.25;;;4.32;;
55589;SDS011;41452;42.780;23.116;2023-07-31T06:36:45;13.35;;;4.50;;
55589;SDS011;41452;42.780;23.116;2023-07-31T06:39:11;13.27;;;4.15;;
55589;SDS011;41452;42.780;23.116;2023-07-31T06:41:37;11.13;;;3.78;;
55589;SDS011;41452;42.780;23.116;2023-07-31T06:44:03;5.25;;;3.58;;
55589;SDS011;41452;42.780;23.116;2023-07-31T06:46:28;4.78;;;2.92;;
55589;SDS011;41452;42.780;23.116;2023-07-31T06:48:54;8.15;;;3.45;;
55589;SDS011;41452;42.780;23.116;2023-07-31T06:51:20;5.95;;;3.58;;
55589;SDS011;41452;42.780;23.116;2023-07-31T06:53:45;8.68;;;3.63;;
55589;SDS011;41452;42.780;23.116;2023-07-31T06:56:11;8.48;;;2.75;;
55589;SDS011;41452;42.780;23.116;2023-07-31T06:58:36;6.32;;;3.00;;
55589;SDS011;41452;42.780;23.116;2023-07-31T07:01:01;4.38;;;3.05;;
55589;SDS011;41452;42.780;23.116;2023-07-31T07:03:27;8.35;;;2.90;;
55589;SDS011;41452;42.780;23.116;2023-07-31T07:05:52;4.60;;;2.90;;
55589;SDS011;41452;42.780;23.116;2023-07-31T07:08:17;4.63;;;2.70;;
55589;SDS011;41452;42.780;23.116;2023-07-31T07:10:43;4.50;;;3.05;;
55589;SDS011;41452;42.780;23.116;2023-07-31T07:13:08;10.18;;;2.90;;
55589;SDS011;41452;42.780;23.116;2023-07-31T07:15:34;8.38;;;3.50;;
55589;SDS011;41452;42.780;23.116;2023-07-31T07:18:00;3.95;;;2.90;;
55589;SDS011;41452;42.780;23.116;2023-07-31T07:20:25;5.53;;;3.10;;
55589;SDS011;41452;42.780;23.116;2023-07-31T07:22:50;5.60;;;2.63;;
55589;SDS011;41452;42.780;23.116;2023-07-31T07:25:16;4.95;;;2.72;;
55589;SDS011;41452;42.780;23.116;2023-07-31T07:27:41;3.83;;;2.60;;
55589;SDS011;41452;42.780;23.116;2023-07-31T07:30:07;4.03;;;2.92;;
55589;SDS011;41452;42.780;23.116;2023-07-31T07:32:32;7.03;;;3.28;;
55589;SDS011;41452;42.780;23.116;2023-07-31T07:34:58;4.05;;;2.88;;
55589;SDS011;41452;42.780;23.116;2023-07-31T07:37:23;4.25;;;2.80;;
55589;SDS011;41452;42.780;23.116;2023-07-31T07:39:49;3.97;;;2.72;;
55589;SDS011;41452;42.780;23.116;2023-07-31T07:42:14;4.13;;;2.30;;
55589;SDS011;41452;42.780;23.116;2023-07-31T07:44:40;4.25;;;2.50;;
55589;SDS011;41452;42.780;23.116;2023-07-31T07:47:05;3.47;;;2.05;;
55589;SDS011;41452;42.780;23.116;2023-07-31T07:49:32;4.32;;;2.63;;
55589;SDS011;41452;42.780;23.116;2023-07-31T07:51:59;5.80;;;2.42;;
55589;SDS011;41452;42.780;23.116;2023-07-31T07:54:25;6.55;;;2.50;;
55589;SDS011;41452;42.780;23.116;2023-07-31T07:56:50;4.45;;;2.10;;
55589;SDS011;41452;42.780;23.116;2023-07-31T07:59:15;3.60;;;2.47;;
55589;SDS011;41452;42.780;23.116;2023-07-31T08:01:41;6.43;;;2.42;;
55589;SDS011;41452;42.780;23.116;2023-07-31T08:04:06;4.85;;;2.00;;
55589;SDS011;41452;42.780;23.116;2023-07-31T08:06:32;4.90;;;2.38;;
55589;SDS011;41452;42.780;23.116;2023-07-31T08:08:57;2.90;;;2.03;;
55589;SDS011;41452;42.780;23.116;2023-07-31T08:11:22;4.50;;;3.35;;
55589;SDS011;41452;42.780;23.116;2023-07-31T08:13:48;4.45;;;2.70;;
55589;SDS011;41452;42.780;23.116;2023-07-31T08:16:14;7.40;;;2.22;;
55589;SDS011;41452;42.780;23.116;2023-07-31T08:18:40;4.05;;;2.22;;
55589;SDS011;41452;42.780;23.116;2023-07-31T08:21:07;4.95;;;2.28;;
55589;SDS011;41452;42.780;23.116;2023-07-31T08:23:32;4.07;;;2.05;;
55589;SDS011;41452;42.780;23.116;2023-07-31T08:25:58;3.63;;;2.08;;
55589;SDS011;41452;42.780;23.116;2023-07-31T08:28:23;6.00;;;2.58;;
55589;SDS011;41452;42.780;23.116;2023-07-31T08:30:48;3.95;;;2.35;;
55589;SDS011;41452;42.780;23.116;2023-07-31T08:33:15;2.90;;;1.90;;
55589;SDS011;41452;42.780;23.116;2023-07-31T08:35:40;4.55;;;2.70;;
55589;SDS011;41452;42.780;23.116;2023-07-31T08:38:06;5.55;;;2.33;;
55589;SDS011;41452;42.780;23.116;2023-07-31T08:40:31;4.63;;;2.63;;
55589;SDS011;41452;42.780;23.116;2023-07-31T08:42:56;3.70;;;2.38;;
55589;SDS011;41452;42.780;23.116;2023-07-31T08:45:27;4.13;;;2.33;;
55589;SDS011;41452;42.780;23.116;2023-07-31T08:47:52;3.50;;;2.22;;
55589;SDS011;41452;42.780;23.116;2023-07-31T08:50:19;4.13;;;2.72;;
55589;SDS011;41452;42.780;23.116;2023-07-31T08:52:46;4.00;;;2.22;;
55589;SDS011;41452;42.780;23.116;2023-07-31T08:55:13;5.13;;;2.58;;
55589;SDS011;41452;42.780;23.116;2023-07-31T08:57:39;4.28;;;2.40;;
55589;SDS011;41452;42.780;23.116;2023-07-31T09:00:07;4.13;;;2.50;;
55589;SDS011;41452;42.780;23.116;2023-07-31T09:05:11;3.47;;;2.30;;
55589;SDS011;41452;42.780;23.116;2023-07-31T09:07:37;5.70;;;2.28;;
55589;SDS011;41452;42.780;23.116;2023-07-31T09:10:03;3.03;;;1.83;;
55589;SDS011;41452;42.780;23.116;2023-07-31T09:12:30;5.15;;;2.38;;
55589;SDS011;41452;42.780;23.116;2023-07-31T09:14:56;4.13;;;2.30;;
55589;SDS011;41452;42.780;23.116;2023-07-31T09:17:29;3.42;;;1.98;;
55589;SDS011;41452;42.780;23.116;2023-07-31T09:19:56;4.63;;;1.95;;
55589;SDS011;41452;42.780;23.116;2023-07-31T09:22:31;7.97;;;2.17;;
55589;SDS011;41452;42.780;23.116;2023-07-31T09:27:53;4.97;;;2.00;;
55589;SDS011;41452;42.780;23.116;2023-07-31T09:30:20;8.40;;;1.95;;
55589;SDS011;41452;42.780;23.116;2023-07-31T09:32:46;4.25;;;1.75;;
55589;SDS011;41452;42.780;23.116;2023-07-31T09:35:27;2.65;;;1.65;;
55589;SDS011;41452;42.780;23.116;2023-07-31T09:37:55;4.65;;;1.77;;
55589;SDS011;41452;42.780;23.116;2023-07-31T09:40:30;7.18;;;2.10;;
55589;SDS011;41452;42.780;23.116;2023-07-31T09:42:56;2.28;;;1.63;;
55589;SDS011;41452;42.780;23.116;2023-07-31T09:45:42;3.70;;;1.70;;
55589;SDS011;41452;42.780;23.116;2023-07-31T09:48:09;8.40;;;2.17;;
55589;SDS011;41452;42.780;23.116;2023-07-31T09:50:37;3.97;;;2.30;;
55589;SDS011;41452;42.780;23.116;2023-07-31T09:53:05;4.53;;;2.08;;
55589;SDS011;41452;42.780;23.116;2023-07-31T09:55:31;12.23;;;2.55;;
55589;SDS011;41452;42.780;23.116;2023-07-31T09:57:57;8.88;;;2.28;;
55589;SDS011;41452;42.780;23.116;2023-07-31T10:00:23;4.93;;;1.90;;
55589;SDS011;41452;42.780;23.116;2023-07-31T10:02:52;5.00;;;1.98;;
55589;SDS011;41452;42.780;23.116;2023-07-31T10:05:19;6.55;;;2.40;;
55589;SDS011;41452;42.780;23.116;2023-07-31T10:07:51;5.43;;;2.08;;
55589;SDS011;41452;42.780;23.116;2023-07-31T10:12:45;7.65;;;1.80;;
55589;SDS011;41452;42.780;23.116;2023-07-31T10:15:12;3.17;;;1.58;;
55589;SDS011;41452;42.780;23.116;2023-07-31T10:17:40;6.85;;;1.70;;
55589;SDS011;41452;42.780;23.116;2023-07-31T10:20:06;4.25;;;1.50;;
55589;SDS011;41452;42.780;23.116;2023-07-31T10:22:32;6.03;;;2.63;;
55589;SDS011;41452;42.780;23.116;2023-07-31T10:24:59;4.03;;;1.65;;
55589;SDS011;41452;42.780;23.116;2023-07-31T10:27:25;5.63;;;1.88;;
55589;SDS011;41452;42.780;23.116;2023-07-31T10:29:51;2.38;;;1.52;;
55589;SDS011;41452;42.780;23.116;2023-07-31T10:32:19;3.55;;;1.80;;
55589;SDS011;41452;42.780;23.116;2023-07-31T10:34:47;3.80;;;1.80;;
55589;SDS011;41452;42.780;23.116;2023-07-31T10:40:00;4.20;;;1.85;;
55589;SDS011;41452;42.780;23.116;2023-07-31T10:42:46;9.48;;;2.33;;
55589;SDS011;41452;42.780;23.116;2023-07-31T10:45:14;9.77;;;2.10;;
55589;SDS011;41452;42.780;23.116;2023-07-31T10:47:49;3.75;;;1.50;;
55589;SDS011;41452;42.780;23.116;2023-07-31T10:50:18;3.60;;;1.50;;
55589;SDS011;41452;42.780;23.116;2023-07-31T10:52:48;2.70;;;1.38;;
55589;SDS011;41452;42.780;23.116;2023-07-31T10:55:28;2.42;;;1.55;;
55589;SDS011;41452;42.780;23.116;2023-07-31T10:57:55;3.38;;;1.77;;
55589;SDS011;41452;42.780;23.116;2023-07-31T11:02:56;3.60;;;2.58;;
55589;SDS011;41452;42.780;23.116;2023-07-31T11:15:54;4.68;;;2.90;;
55589;SDS011;41452;42.780;23.116;2023-07-31T11:18:19;5.13;;;2.80;;
55589;SDS011;41452;42.780;23.116;2023-07-31T11:20:45;3.92;;;3.00;;
55589;SDS011;41452;42.780;23.116;2023-07-31T11:23:10;7.97;;;3.00;;
55589;SDS011;41452;42.780;23.116;2023-07-31T11:25:36;5.68;;;2.50;;
55589;SDS011;41452;42.780;23.116;2023-07-31T11:28:14;5.60;;;3.38;;
55589;SDS011;41452;42.780;23.116;2023-07-31T11:30:41;6.78;;;4.15;;
55589;SDS011;41452;42.780;23.116;2023-07-31T11:33:08;7.18;;;4.25;;
55589;SDS011;41452;42.780;23.116;2023-07-31T11:35:35;5.95;;;4.32;;
55589;SDS011;41452;42.780;23.116;2023-07-31T11:38:11;5.60;;;4.70;;
55589;SDS011;41452;42.780;23.116;2023-07-31T11:40:45;8.35;;;6.35;;
55589;SDS011;41452;42.780;23.116;2023-07-31T11:43:11;8.55;;;6.07;;
55589;SDS011;41452;42.780;23.116;2023-07-31T11:45:41;9.25;;;6.20;;
55589;SDS011;41452;42.780;23.116;2023-07-31T11:48:06;9.32;;;6.05;;
55589;SDS011;41452;42.780;23.116;2023-07-31T11:50:33;10.10;;;6.25;;
55589;SDS011;41452;42.780;23.116;2023-07-31T11:53:01;7.18;;;5.47;;
55589;SDS011;41452;42.780;23.116;2023-07-31T11:55:32;17.67;;;6.18;;
55589;SDS011;41452;42.780;23.116;2023-07-31T11:57:58;6.68;;;5.28;;
55589;SDS011;41452;42.780;23.116;2023-07-31T12:00:24;7.78;;;5.35;;
55589;SDS011;41452;42.780;23.116;2023-07-31T12:02:51;8.20;;;5.88;;
55589;SDS011;41452;42.780;23.116;2023-07-31T12:05:16;7.18;;;5.75;;
55589;SDS011;41452;42.780;23.116;2023-07-31T12:07:46;7.50;;;5.85;;
55589;SDS011;41452;42.780;23.116;2023-07-31T12:10:31;6.30;;;5.00;;
55589;SDS011;41452;42.780;23.116;2023-07-31T12:13:04;6.78;;;5.82;;
55589;SDS011;41452;42.780;23.116;2023-07-31T12:15:38;7.03;;;5.77;;
55589;SDS011;41452;42.780;23.116;2023-07-31T12:18:19;7.60;;;5.10;;
55589;SDS011;41452;42.780;23.116;2023-07-31T12:20:46;9.05;;;5.40;;
55589;SDS011;41452;42.780;23.116;2023-07-31T12:23:15;6.13;;;5.15;;
55589;SDS011;41452;42.780;23.116;2023-07-31T12:25:42;6.07;;;4.97;;
55589;SDS011;41452;42.780;23.116;2023-07-31T12:28:08;8.35;;;5.45;;
55589;SDS011;41452;42.780;23.116;2023-07-31T12:30:37;6.00;;;5.30;;
55589;SDS011;41452;42.780;23.116;2023-07-31T12:33:05;8.32;;;5.72;;
55589;SDS011;41452;42.780;23.116;2023-07-31T12:35:40;12.30;;;5.95;;
55589;SDS011;41452;42.780;23.116;2023-07-31T12:38:08;9.68;;;4.53;;
55589;SDS011;41452;42.780;23.116;2023-07-31T12:40:35;6.50;;;4.55;;
55589;SDS011;41452;42.780;23.116;2023-07-31T12:43:02;6.45;;;4.70;;
55589;SDS011;41452;42.780;23.116;2023-07-31T12:45:28;6.85;;;5.47;;
55589;SDS011;41452;42.780;23.116;2023-07-31T12:47:54;5.90;;;4.72;;
55589;SDS011;41452;42.780;23.116;2023-07-31T12:50:19;12.18;;;4.32;;
55589;SDS011;41452;42.780;23.116;2023-07-31T12:52:45;8.02;;;3.72;;
55589;SDS011;41452;42.780;23.116;2023-07-31T12:55:10;4.85;;;3.72;;
55589;SDS011;41452;42.780;23.116;2023-07-31T12:57:36;5.00;;;3.70;;
55589;SDS011;41452;42.780;23.116;2023-07-31T13:00:01;4.45;;;3.40;;
55589;SDS011;41452;42.780;23.116;2023-07-31T13:02:27;5.97;;;3.97;;
55589;SDS011;41452;42.780;23.116;2023-07-31T13:04:53;7.72;;;3.75;;
55589;SDS011;41452;42.780;23.116;2023-07-31T13:07:19;5.45;;;3.60;;
55589;SDS011;41452;42.780;23.116;2023-07-31T13:09:44;4.40;;;3.72;;
55589;SDS011;41452;42.780;23.116;2023-07-31T13:12:10;5.22;;;4.20;;
55589;SDS011;41452;42.780;23.116;2023-07-31T13:14:35;6.20;;;3.72;;
55589;SDS011;41452;42.780;23.116;2023-07-31T13:17:01;4.47;;;3.63;;
55589;SDS011;41452;42.780;23.116;2023-07-31T13:19:26;5.13;;;3.75;;
55589;SDS011;41452;42.780;23.116;2023-07-31T13:21:52;5.45;;;3.75;;
55589;SDS011;41452;42.780;23.116;2023-07-31T13:24:17;6.03;;;3.85;;
55589;SDS011;41452;42.780;23.116;2023-07-31T13:26:42;8.55;;;4.22;;
55589;SDS011;41452;42.780;23.116;2023-07-31T13:29:08;6.55;;;3.83;;
55589;SDS011;41452;42.780;23.116;2023-07-31T13:31:33;5.22;;;3.95;;
55589;SDS011;41452;42.780;23.116;2023-07-31T13:33:58;5.30;;;3.80;;
55589;SDS011;41452;42.780;23.116;2023-07-31T13:36:24;5.97;;;3.92;;
55589;SDS011;41452;42.780;23.116;2023-07-31T13:38:49;5.93;;;3.75;;
55589;SDS011;41452;42.780;23.116;2023-07-31T13:41:15;5.05;;;3.50;;
55589;SDS011;41452;42.780;23.116;2023-07-31T13:43:40;5.10;;;3.33;;
55589;SDS011;41452;42.780;23.116;2023-07-31T13:46:06;4.85;;;3.30;;
55589;SDS011;41452;42.780;23.116;2023-07-31T13:48:35;5.97;;;3.20;;
55589;SDS011;41452;42.780;23.116;2023-07-31T13:51:01;7.40;;;3.20;;
55589;SDS011;41452;42.780;23.116;2023-07-31T13:53:26;4.20;;;2.85;;
55589;SDS011;41452;42.780;23.116;2023-07-31T13:55:51;4.30;;;2.97;;
55589;SDS011;41452;42.780;23.116;2023-07-31T13:58:17;5.55;;;3.00;;
55589;SDS011;41452;42.780;23.116;2023-07-31T14:00:42;8.02;;;3.47;;
55589;SDS011;41452;42.780;23.116;2023-07-31T14:03:08;6.57;;;2.88;;
55589;SDS011;41452;42.780;23.116;2023-07-31T14:05:33;6.57;;;3.38;;
55589;SDS011;41452;42.780;23.116;2023-07-31T14:07:59;8.02;;;3.20;;
55589;SDS011;41452;42.780;23.116;2023-07-31T14:10:25;9.82;;;2.90;;
55589;SDS011;41452;42.780;23.116;2023-07-31T14:12:50;4.35;;;2.95;;
55589;SDS011;41452;42.780;23.116;2023-07-31T14:15:15;5.75;;;3.20;;
55589;SDS011;41452;42.780;23.116;2023-07-31T14:17:41;5.07;;;2.97;;
55589;SDS011;41452;42.780;23.116;2023-07-31T14:20:06;6.18;;;3.20;;
55589;SDS011;41452;42.780;23.116;2023-07-31T14:22:32;7.70;;;2.58;;
55589;SDS011;41452;42.780;23.116;2023-07-31T14:24:59;3.90;;;2.85;;
55589;SDS011;41452;42.780;23.116;2023-07-31T14:27:24;5.95;;;2.65;;
55589;SDS011;41452;42.780;23.116;2023-07-31T14:29:50;6.05;;;2.92;;
55589;SDS011;41452;42.780;23.116;2023-07-31T14:32:15;3.83;;;2.60;;
55589;SDS011;41452;42.780;23.116;2023-07-31T14:34:41;4.43;;;2.83;;
55589;SDS011;41452;42.780;23.116;2023-07-31T14:37:06;11.32;;;2.65;;
55589;SDS011;41452;42.780;23.116;2023-07-31T14:39:32;3.67;;;2.58;;
55589;SDS011;41452;42.780;23.116;2023-07-31T14:41:57;4.57;;;2.28;;
55589;SDS011;41452;42.780;23.116;2023-07-31T14:44:22;3.83;;;2.13;;
55589;SDS011;41452;42.780;23.116;2023-07-31T14:46:48;3.60;;;2.40;;
55589;SDS011;41452;42.780;23.116;2023-07-31T14:49:14;5.55;;;2.10;;
55589;SDS011;41452;42.780;23.116;2023-07-31T14:51:39;5.20;;;2.17;;
55589;SDS011;41452;42.780;23.116;2023-07-31T14:54:05;2.58;;;1.60;;